Time;durP1;ratioP1;P1;durP2;ratioP2;P2;SDS_P1;SDS_P2;PMS_P1;PMS_P2;Temp;Humidity;BMP_temperature;BMP_pressure;BME280_temperature;BME280_humidity;BME280_pressure;Samples;Min_cycle;Max_cycle;Signal;HPM_P1;HPM_P2
2021/09/11 00:01:51;;;;;;;18.08;13.10;;;25.30;59.40;;;;;;5039547;28;20044;-83
2021/09/11 00:04:19;;;;;;;20.23;13.73;;;25.20;59.50;;;;;;5047166;28;20038;-84
2021/09/11 00:06:44;;;;;;;19.00;13.75;;;25.20;59.90;;;;;;5041927;28;20094;-85
2021/09/11 00:09:13;;;;;;;21.67;13.98;;;25.20;60.00;;;;;;5036774;28;20542;-84
2021/09/11 00:11:39;;;;;;;18.25;14.13;;;25.20;60.60;;;;;;5036882;28;20025;-85
2021/09/11 00:14:05;;;;;;;20.35;14.73;;;25.20;60.90;;;;;;5036339;28;20029;-84
2021/09/11 00:16:31;;;;;;;23.48;14.63;;;25.20;60.60;;;;;;5036736;28;20022;-83
2021/09/11 00:18:57;;;;;;;18.20;14.68;;;25.20;60.60;;;;;;5041758;28;20028;-82
2021/09/11 00:21:26;;;;;;;22.85;15.23;;;25.10;60.60;;;;;;5050382;28;20037;-84
2021/09/11 00:23:51;;;;;;;19.27;14.95;;;25.10;61.20;;;;;;5039283;28;20112;-83
2021/09/11 00:26:17;;;;;;;20.83;15.18;;;25.10;60.90;;;;;;5049988;28;20033;-73
2021/09/11 00:28:43;;;;;;;18.35;14.32;;;25.00;61.10;;;;;;5040367;28;20356;-71
2021/09/11 00:31:10;;;;;;;19.35;14.85;;;25.00;61.20;;;;;;5042952;28;20387;-84
2021/09/11 00:33:37;;;;;;;20.25;13.70;;;24.90;61.50;;;;;;5035562;28;20029;-74
2021/09/11 00:36:03;;;;;;;18.42;14.63;;;24.90;61.80;;;;;;5034534;28;20387;-73
2021/09/11 00:38:28;;;;;;;21.60;14.32;;;24.90;61.60;;;;;;5034309;28;20029;-77
2021/09/11 00:40:55;;;;;;;18.52;14.23;;;24.90;61.50;;;;;;5033651;28;20388;-72
2021/09/11 00:43:26;;;;;;;17.92;13.45;;;24.90;61.10;;;;;;5033945;28;20443;-76
2021/09/11 00:45:52;;;;;;;17.88;12.68;;;24.80;61.20;;;;;;5034156;28;20025;-76
2021/09/11 00:48:18;;;;;;;21.70;13.27;;;24.80;61.30;;;;;;5032005;28;20537;-80
2021/09/11 00:50:45;;;;;;;19.17;13.18;;;24.80;61.40;;;;;;5034246;28;20025;-75
2021/09/11 00:53:12;;;;;;;23.88;13.10;;;24.90;61.90;;;;;;5048710;28;20056;-76
2021/09/11 00:55:38;;;;;;;19.80;14.27;;;24.90;61.80;;;;;;5054244;28;20493;-77
2021/09/11 00:58:05;;;;;;;16.90;12.63;;;24.80;61.90;;;;;;5054163;28;20024;-79
2021/09/11 01:00:31;;;;;;;20.02;13.85;;;24.80;62.40;;;;;;5054266;28;20389;-77
2021/09/11 01:02:57;;;;;;;26.63;13.38;;;24.80;62.30;;;;;;5053790;28;20029;-76
2021/09/11 01:05:22;;;;;;;20.58;14.85;;;24.80;62.20;;;;;;5036032;28;20441;-79
2021/09/11 01:07:49;;;;;;;18.48;14.25;;;24.70;62.20;;;;;;5053538;28;20437;-76
2021/09/11 01:10:15;;;;;;;19.65;13.93;;;24.70;62.70;;;;;;5053759;28;20485;-79
2021/09/11 01:12:42;;;;;;;18.20;13.63;;;24.70;62.30;;;;;;5053620;28;20025;-77
2021/09/11 01:15:11;;;;;;;17.58;12.20;;;24.70;62.60;;;;;;5053862;28;20116;-76
2021/09/11 01:17:40;;;;;;;17.88;13.55;;;24.70;62.20;;;;;;5053844;28;20100;-78
2021/09/11 01:20:07;;;;;;;14.95;13.27;;;24.70;62.50;;;;;;5053635;28;20071;-76
2021/09/11 01:22:37;;;;;;;19.48;13.23;;;24.70;62.10;;;;;;5053259;28;20470;-76
2021/09/11 01:25:08;;;;;;;21.38;14.15;;;24.70;61.80;;;;;;5036482;28;20036;-76
2021/09/11 01:27:34;;;;;;;19.50;13.07;;;24.70;62.30;;;;;;5036204;28;20040;-73
2021/09/11 01:30:04;;;;;;;20.02;14.35;;;24.70;62.30;;;;;;5054819;28;20071;-73
2021/09/11 01:32:31;;;;;;;20.60;13.77;;;24.70;62.50;;;;;;5055263;28;20477;-78
2021/09/11 01:34:58;;;;;;;21.30;13.82;;;24.70;62.40;;;;;;5054696;28;20029;-76
2021/09/11 01:37:24;;;;;;;17.58;13.65;;;24.60;62.70;;;;;;5055662;28;20048;-80
2021/09/11 01:39:50;;;;;;;19.25;13.38;;;24.60;62.70;;;;;;5057368;28;20021;-73
2021/09/11 01:42:17;;;;;;;18.92;14.75;;;24.60;62.70;;;;;;5046007;28;20036;-77
2021/09/11 01:45:11;;;;;;;18.20;13.80;;;24.60;62.80;;;;;;5056609;28;20079;-74
2021/09/11 01:47:39;;;;;;;19.67;14.50;;;24.50;62.80;;;;;;5052653;28;20033;-85
2021/09/11 01:50:06;;;;;;;18.77;13.98;;;24.50;62.90;;;;;;5076273;28;20053;-77
2021/09/11 01:52:32;;;;;;;17.02;14.35;;;24.50;62.80;;;;;;5076181;28;20041;-75
2021/09/11 01:55:00;;;;;;;19.08;14.10;;;24.50;63.00;;;;;;5076647;28;20021;-77
2021/09/11 01:57:26;;;;;;;16.17;14.02;;;24.50;63.30;;;;;;5071582;28;20052;-85
2021/09/11 01:59:52;;;;;;;21.00;14.15;;;24.50;63.10;;;;;;5059121;28;20025;-81
2021/09/11 02:02:18;;;;;;;23.35;13.82;;;24.50;63.40;;;;;;5058577;28;20044;-83
2021/09/11 02:04:44;;;;;;;24.60;14.27;;;24.40;63.10;;;;;;5057508;28;20040;-84
2021/09/11 02:07:11;;;;;;;16.88;13.25;;;24.40;63.00;;;;;;5039721;28;20018;-82
2021/09/11 02:09:37;;;;;;;19.13;13.82;;;24.40;63.20;;;;;;5058610;28;20406;-80
2021/09/11 02:12:04;;;;;;;20.50;12.98;;;24.30;62.50;;;;;;5057822;28;20017;-77
2021/09/11 02:14:30;;;;;;;17.65;12.88;;;24.30;62.50;;;;;;5056898;28;20028;-74
2021/09/11 02:16:56;;;;;;;18.88;11.98;;;24.30;62.20;;;;;;5057140;28;20025;-73
2021/09/11 02:19:22;;;;;;;13.65;11.57;;;24.30;61.80;;;;;;5057513;28;20021;-77
2021/09/11 02:21:47;;;;;;;15.00;10.98;;;24.20;61.80;;;;;;5071429;28;20067;-75
2021/09/11 02:24:14;;;;;;;16.70;11.48;;;24.20;61.60;;;;;;5078901;28;20049;-72
2021/09/11 02:26:40;;;;;;;19.00;12.00;;;24.20;61.70;;;;;;5058857;28;20067;-73
2021/09/11 02:29:06;;;;;;;14.05;11.20;;;24.10;61.40;;;;;;5057634;28;20113;-73
2021/09/11 02:31:32;;;;;;;13.90;11.88;;;24.20;61.80;;;;;;5056787;28;20107;-75
2021/09/11 02:33:58;;;;;;;17.52;12.25;;;24.20;61.80;;;;;;5056460;28;20021;-74
2021/09/11 02:36:23;;;;;;;16.88;11.82;;;24.20;61.80;;;;;;5056156;28;20033;-75
2021/09/11 02:38:49;;;;;;;16.92;11.68;;;24.20;61.70;;;;;;5056440;28;20382;-75
2021/09/11 02:41:15;;;;;;;16.15;12.15;;;24.10;61.70;;;;;;5056420;28;20036;-73
2021/09/11 02:43:41;;;;;;;15.90;11.48;;;24.20;61.40;;;;;;5056236;28;20103;-74
2021/09/11 02:46:07;;;;;;;19.00;11.77;;;24.20;61.40;;;;;;5056205;28;20049;-73
2021/09/11 02:48:33;;;;;;;16.63;11.68;;;24.10;61.50;;;;;;5037629;28;20556;-73
2021/09/11 02:50:58;;;;;;;17.23;11.63;;;24.10;61.60;;;;;;5038112;28;20061;-75
2021/09/11 02:53:24;;;;;;;16.25;11.45;;;24.10;61.40;;;;;;5056141;28;20043;-74
2021/09/11 02:55:51;;;;;;;15.10;11.65;;;24.10;61.40;;;;;;5055776;28;20104;-74
2021/09/11 02:58:22;;;;;;;14.48;11.15;;;24.00;61.10;;;;;;5055816;28;20048;-73
2021/09/11 03:00:50;;;;;;;14.90;11.48;;;24.00;60.80;;;;;;5055901;28;20040;-73
2021/09/11 03:03:16;;;;;;;14.63;11.70;;;24.10;61.50;;;;;;5038364;28;20145;-74
2021/09/11 03:05:41;;;;;;;17.23;11.27;;;24.10;61.30;;;;;;5055557;28;20064;-73
2021/09/11 03:08:07;;;;;;;13.57;12.07;;;24.10;61.30;;;;;;5055833;28;20064;-73
2021/09/11 03:10:33;;;;;;;16.80;11.65;;;24.10;61.10;;;;;;5037629;28;20127;-74
2021/09/11 03:12:58;;;;;;;17.67;11.88;;;24.10;61.40;;;;;;5054664;28;20025;-74
2021/09/11 03:15:24;;;;;;;13.73;11.35;;;24.10;61.10;;;;;;5055596;28;20029;-73
2021/09/11 03:17:50;;;;;;;17.95;12.77;;;24.10;61.20;;;;;;5055469;28;20025;-76
2021/09/11 03:20:16;;;;;;;16.40;11.68;;;24.00;61.30;;;;;;5055284;28;20025;-73
2021/09/11 03:22:44;;;;;;;14.55;12.27;;;24.00;61.30;;;;;;5055467;28;20091;-74
2021/09/11 03:25:10;;;;;;;14.48;11.57;;;24.00;60.70;;;;;;5037340;28;20506;-72
2021/09/11 03:27:36;;;;;;;16.33;12.18;;;24.00;61.20;;;;;;5037442;28;20060;-74
2021/09/11 03:30:02;;;;;;;17.27;12.15;;;23.90;61.40;;;;;;5055088;28;20060;-74
2021/09/11 03:32:28;;;;;;;15.13;11.88;;;23.90;61.70;;;;;;5055515;28;20024;-73
2021/09/11 03:34:53;;;;;;;16.92;12.77;;;23.90;61.90;;;;;;5055628;28;20071;-72
2021/09/11 03:37:19;;;;;;;18.10;12.70;;;23.90;62.00;;;;;;5055469;28;20052;-73
2021/09/11 03:39:45;;;;;;;18.65;12.07;;;23.90;62.00;;;;;;5055418;28;20086;-74
2021/09/11 03:42:10;;;;;;;16.73;11.88;;;23.90;62.00;;;;;;5055031;28;20021;-73
2021/09/11 03:44:36;;;;;;;18.73;12.65;;;23.90;61.90;;;;;;5054746;28;20029;-72
2021/09/11 03:47:02;;;;;;;15.82;12.35;;;23.90;62.20;;;;;;5054831;28;20021;-73
2021/09/11 03:49:28;;;;;;;17.90;12.20;;;23.90;62.00;;;;;;5054643;28;20076;-73
2021/09/11 03:51:53;;;;;;;15.30;11.75;;;23.90;62.10;;;;;;5054927;28;20143;-72
2021/09/11 03:54:19;;;;;;;16.23;11.13;;;23.90;61.90;;;;;;5036885;28;20064;-72
2021/09/11 03:56:45;;;;;;;17.25;12.43;;;23.90;61.90;;;;;;5054619;28;20043;-74
2021/09/11 03:59:10;;;;;;;23.70;13.25;;;23.90;62.00;;;;;;5036698;28;20435;-73
2021/09/11 04:01:36;;;;;;;15.70;12.68;;;23.90;61.90;;;;;;5054981;28;20421;-74
2021/09/11 04:04:02;;;;;;;16.83;12.38;;;23.90;62.00;;;;;;5055051;28;20025;-73
2021/09/11 04:06:27;;;;;;;15.80;11.20;;;23.80;62.00;;;;;;5054832;28;20021;-73
2021/09/11 04:08:53;;;;;;;17.58;13.30;;;23.80;61.90;;;;;;5054617;28;20025;-77
2021/09/11 04:11:19;;;;;;;15.05;12.48;;;23.80;61.80;;;;;;5054695;28;20071;-74
2021/09/11 04:13:44;;;;;;;13.27;11.48;;;23.80;62.10;;;;;;5054341;28;20390;-73
2021/09/11 04:16:10;;;;;;;16.25;12.88;;;23.80;62.20;;;;;;5036526;28;20024;-75
2021/09/11 04:18:35;;;;;;;17.35;13.05;;;23.70;62.30;;;;;;5054878;28;20067;-74
2021/09/11 04:21:01;;;;;;;14.68;12.77;;;23.70;62.40;;;;;;5036506;28;20104;-74
2021/09/11 04:23:27;;;;;;;16.27;12.82;;;23.60;62.20;;;;;;5054375;28;20029;-73
2021/09/11 04:25:53;;;;;;;16.30;12.40;;;23.60;62.30;;;;;;5054236;28;20032;-75
2021/09/11 04:28:19;;;;;;;15.57;12.02;;;23.60;61.90;;;;;;5054146;28;20040;-77
2021/09/11 04:30:44;;;;;;;15.35;12.13;;;23.50;62.40;;;;;;5054529;28;20489;-79
2021/09/11 04:33:10;;;;;;;14.55;11.65;;;23.40;62.50;;;;;;5054359;28;20028;-74
2021/09/11 04:35:36;;;;;;;14.70;11.18;;;23.40;62.40;;;;;;5036707;28;20025;-72
2021/09/11 04:38:02;;;;;;;15.93;12.73;;;23.30;62.30;;;;;;5056224;28;20029;-73
2021/09/11 04:40:28;;;;;;;17.80;12.57;;;23.40;62.40;;;;;;5056873;28;20502;-79
2021/09/11 04:42:55;;;;;;;15.00;12.77;;;23.30;62.60;;;;;;5036650;28;20071;-75
2021/09/11 04:45:22;;;;;;;15.27;11.57;;;23.30;62.40;;;;;;5054601;28;20379;-74
2021/09/11 04:47:47;;;;;;;14.48;11.13;;;23.30;62.60;;;;;;5055509;28;20052;-76
2021/09/11 04:50:13;;;;;;;19.00;11.68;;;23.30;62.60;;;;;;5055578;28;20071;-73
2021/09/11 04:52:39;;;;;;;18.27;12.18;;;23.30;62.60;;;;;;5055928;28;20040;-76
2021/09/11 04:55:07;;;;;;;13.85;11.82;;;23.20;62.50;;;;;;5057964;28;20402;-73
2021/09/11 04:57:34;;;;;;;16.20;12.38;;;23.30;62.30;;;;;;5060595;28;20041;-73
2021/09/11 05:00:01;;;;;;;17.13;11.85;;;23.30;61.80;;;;;;5041965;28;20044;-73
2021/09/11 05:02:26;;;;;;;19.02;11.13;;;23.30;62.70;;;;;;5043058;28;20028;-73
2021/09/11 05:04:53;;;;;;;17.25;11.50;;;23.30;62.20;;;;;;5056579;28;20024;-74
2021/09/11 05:07:19;;;;;;;14.45;11.32;;;23.20;62.50;;;;;;5054655;28;20029;-72
2021/09/11 05:09:45;;;;;;;16.17;11.77;;;23.20;62.40;;;;;;5035656;28;20047;-73
2021/09/11 05:12:10;;;;;;;16.05;11.57;;;23.10;62.40;;;;;;5035467;28;20029;-73
2021/09/11 05:14:36;;;;;;;15.70;11.75;;;23.20;62.50;;;;;;5053266;28;20047;-75
2021/09/11 05:17:02;;;;;;;17.55;11.52;;;23.20;62.50;;;;;;5053385;28;20458;-74
2021/09/11 05:19:28;;;;;;;17.10;11.30;;;23.20;62.40;;;;;;5053439;28;20078;-81
2021/09/11 05:21:53;;;;;;;12.60;10.77;;;23.10;62.40;;;;;;5053748;28;20048;-74
2021/09/11 05:24:22;;;;;;;15.85;11.60;;;23.10;62.50;;;;;;5053563;28;20071;-73
2021/09/11 05:26:48;;;;;;;13.75;12.07;;;23.10;62.00;;;;;;5038517;28;20497;-73
2021/09/11 05:29:13;;;;;;;18.58;12.00;;;23.10;62.30;;;;;;5038597;28;20025;-74
2021/09/11 05:31:40;;;;;;;16.20;11.90;;;23.10;62.10;;;;;;5056132;28;20025;-73
2021/09/11 05:34:06;;;;;;;22.42;11.35;;;23.10;61.70;;;;;;5054969;28;20033;-75
2021/09/11 05:36:32;;;;;;;15.07;11.85;;;23.20;62.60;;;;;;5035609;28;20039;-81
2021/09/11 05:38:58;;;;;;;18.08;11.82;;;23.20;62.30;;;;;;5053850;28;20111;-77
2021/09/11 05:41:25;;;;;;;13.25;11.32;;;23.20;62.40;;;;;;5053516;28;20095;-77
2021/09/11 05:43:50;;;;;;;18.13;11.05;;;23.20;62.50;;;;;;5053421;28;20025;-75
2021/09/11 05:46:16;;;;;;;16.30;11.77;;;23.20;62.40;;;;;;5053246;28;20493;-81
2021/09/11 05:48:42;;;;;;;13.77;10.77;;;23.20;62.20;;;;;;5053684;28;20037;-79
2021/09/11 05:51:09;;;;;;;16.27;11.13;;;23.20;62.00;;;;;;5053456;28;20032;-77
2021/09/11 05:53:35;;;;;;;13.13;10.60;;;23.20;60.80;;;;;;5054697;28;20031;-74
2021/09/11 05:56:01;;;;;;;15.23;10.63;;;23.30;61.90;;;;;;5053747;28;20480;-74
2021/09/11 05:58:27;;;;;;;18.83;12.02;;;23.30;61.80;;;;;;5053383;28;20067;-73
2021/09/11 06:00:53;;;;;;;16.05;10.98;;;23.50;61.50;;;;;;5053612;28;20044;-74
2021/09/11 06:03:20;;;;;;;12.13;10.70;;;23.40;61.40;;;;;;5053801;28;20402;-73
2021/09/11 06:05:45;;;;;;;16.20;11.30;;;23.50;61.40;;;;;;5053499;28;20537;-73
2021/09/11 06:08:12;;;;;;;14.23;10.05;;;23.50;61.20;;;;;;5035299;28;20127;-73
2021/09/11 06:10:37;;;;;;;14.25;10.90;;;23.50;61.30;;;;;;5052918;28;20147;-73
2021/09/11 06:13:03;;;;;;;15.65;10.60;;;23.50;60.90;;;;;;5052508;28;20021;-75
2021/09/11 06:15:29;;;;;;;13.65;10.40;;;23.60;60.80;;;;;;5034791;28;20187;-73
2021/09/11 06:17:55;;;;;;;11.85;10.50;;;23.60;60.60;;;;;;5052383;28;20033;-74
2021/09/11 06:20:20;;;;;;;15.15;10.40;;;23.60;60.70;;;;;;5052534;28;20095;-74
2021/09/11 06:22:46;;;;;;;16.63;10.73;;;23.60;60.80;;;;;;5034785;28;20068;-74
2021/09/11 06:25:14;;;;;;;15.55;10.23;;;23.70;60.80;;;;;;5052458;28;20100;-73
2021/09/11 06:27:41;;;;;;;14.32;10.48;;;23.70;60.70;;;;;;5052789;28;20131;-73
2021/09/11 06:30:12;;;;;;;14.32;10.40;;;23.70;60.60;;;;;;5052561;28;20364;-75
2021/09/11 06:32:38;;;;;;;13.55;9.45;;;23.70;60.20;;;;;;5052584;28;20029;-74
2021/09/11 06:35:05;;;;;;;14.13;10.20;;;23.60;60.30;;;;;;5052039;28;20060;-74
2021/09/11 06:37:32;;;;;;;13.38;9.45;;;23.60;60.10;;;;;;5051657;28;20029;-77
2021/09/11 06:39:58;;;;;;;13.07;9.73;;;23.70;60.30;;;;;;5052292;28;20025;-73
2021/09/11 06:42:23;;;;;;;16.15;10.38;;;23.70;59.80;;;;;;5052010;28;20421;-75
2021/09/11 06:44:49;;;;;;;17.00;9.70;;;23.80;59.50;;;;;;5051945;28;20478;-73
2021/09/11 06:47:15;;;;;;;14.68;9.60;;;23.90;59.20;;;;;;5054916;28;20076;-77
2021/09/11 06:49:41;;;;;;;14.70;9.95;;;24.00;58.90;;;;;;5058337;28;20029;-75
2021/09/11 06:52:08;;;;;;;11.68;9.57;;;24.10;58.40;;;;;;5056891;28;20024;-75
2021/09/11 06:54:34;;;;;;;14.82;10.48;;;24.40;57.90;;;;;;5055974;28;20025;-75
2021/09/11 06:57:00;;;;;;;13.88;9.27;;;24.50;57.30;;;;;;5055682;28;20063;-74
2021/09/11 06:59:26;;;;;;;17.70;9.70;;;24.80;56.60;;;;;;5055748;28;20488;-74
2021/09/11 07:01:52;;;;;;;12.45;8.35;;;25.10;55.90;;;;;;5055230;28;20066;-74
2021/09/11 07:04:17;;;;;;;11.70;9.20;;;25.20;55.50;;;;;;5037803;28;20033;-74
2021/09/11 07:06:47;;;;;;;10.70;8.82;;;25.40;55.40;;;;;;5037887;28;20040;-73
2021/09/11 07:09:13;;;;;;;12.27;8.52;;;25.50;55.50;;;;;;5021330;28;20445;-75
2021/09/11 07:11:39;;;;;;;13.88;8.88;;;25.60;54.40;;;;;;5055688;28;20045;-76
2021/09/11 07:14:05;;;;;;;19.02;9.10;;;25.80;53.70;;;;;;5062036;28;20405;-79
2021/09/11 07:16:32;;;;;;;16.25;9.15;;;25.90;53.70;;;;;;5063139;28;20501;-74
2021/09/11 07:19:00;;;;;;;12.57;8.70;;;25.90;54.10;;;;;;5054916;28;20052;-78
2021/09/11 07:21:26;;;;;;;14.07;8.57;;;25.90;54.60;;;;;;5070971;28;20029;-81
2021/09/11 07:23:52;;;;;;;16.35;9.35;;;25.90;53.00;;;;;;5058040;28;20036;-78
2021/09/11 07:26:19;;;;;;;16.70;9.75;;;26.00;52.90;;;;;;5058660;28;20109;-80
2021/09/11 07:28:46;;;;;;;14.07;9.27;;;26.10;52.70;;;;;;5059907;28;20474;-76
2021/09/11 07:31:12;;;;;;;25.27;16.63;;;26.10;52.30;;;;;;5058440;28;20092;-75
2021/09/11 07:33:39;;;;;;;15.45;10.45;;;26.20;52.60;;;;;;5056159;28;20024;-81
2021/09/11 07:36:06;;;;;;;14.45;9.23;;;26.30;52.20;;;;;;5055131;28;20079;-74
2021/09/11 07:38:32;;;;;;;11.73;9.30;;;26.30;51.70;;;;;;5056115;28;20417;-74
2021/09/11 07:40:58;;;;;;;13.95;8.90;;;26.40;52.00;;;;;;5056128;28;20553;-74
2021/09/11 07:43:24;;;;;;;15.38;9.05;;;26.50;51.90;;;;;;5054884;28;20104;-75
2021/09/11 07:45:50;;;;;;;9.25;8.07;;;26.60;52.00;;;;;;5037904;28;20589;-74
2021/09/11 07:48:15;;;;;;;15.63;9.43;;;26.60;51.90;;;;;;5054921;28;20481;-75
2021/09/11 07:50:41;;;;;;;16.80;9.23;;;26.60;51.30;;;;;;5055031;28;20128;-79
2021/09/11 07:53:07;;;;;;;18.08;9.68;;;26.70;51.60;;;;;;5055701;28;20044;-80
2021/09/11 07:55:33;;;;;;;12.60;8.50;;;26.80;51.30;;;;;;5055895;28;20036;-77
2021/09/11 07:57:59;;;;;;;12.73;8.70;;;26.80;51.40;;;;;;5055073;28;20053;-81
2021/09/11 08:00:26;;;;;;;10.00;8.13;;;26.80;51.20;;;;;;5055805;28;20033;-81
2021/09/11 08:02:51;;;;;;;16.02;9.63;;;26.70;50.90;;;;;;5058531;28;20037;-74
2021/09/11 08:05:17;;;;;;;12.57;8.98;;;26.70;51.00;;;;;;5062008;28;20043;-74
2021/09/11 08:07:43;;;;;;;11.50;8.27;;;26.70;51.20;;;;;;5059949;28;20112;-73
2021/09/11 08:10:09;;;;;;;11.98;9.05;;;26.70;51.00;;;;;;5060790;28;20097;-72
2021/09/11 08:12:35;;;;;;;13.30;9.07;;;26.60;51.20;;;;;;5058025;28;20028;-74
2021/09/11 08:15:01;;;;;;;17.73;13.13;;;26.60;50.60;;;;;;5038344;28;20386;-74
2021/09/11 08:17:27;;;;;;;16.73;11.50;;;26.60;50.80;;;;;;5055082;28;20036;-74
2021/09/11 08:19:53;;;;;;;13.70;10.00;;;26.60;50.80;;;;;;5054339;28;20025;-75
2021/09/11 08:22:18;;;;;;;12.68;8.20;;;26.60;51.00;;;;;;5036003;28;20398;-75
2021/09/11 08:24:44;;;;;;;14.02;8.35;;;26.60;50.80;;;;;;5035841;28;20024;-75
2021/09/11 08:27:10;;;;;;;12.35;8.63;;;26.60;50.60;;;;;;5053870;28;20029;-76
2021/09/11 08:29:36;;;;;;;12.30;8.75;;;26.60;50.50;;;;;;5053631;28;20037;-73
2021/09/11 08:32:03;;;;;;;12.55;8.45;;;26.60;50.70;;;;;;5053742;28;20324;-81
2021/09/11 08:34:29;;;;;;;12.95;8.48;;;26.60;50.30;;;;;;5053447;28;20033;-76
2021/09/11 08:36:54;;;;;;;14.38;9.25;;;26.60;50.40;;;;;;5053298;28;20032;-77
2021/09/11 08:39:24;;;;;;;15.13;8.70;;;26.60;50.60;;;;;;5052847;28;20071;-75
2021/09/11 08:41:50;;;;;;;12.70;8.38;;;26.70;50.20;;;;;;5052665;28;20033;-75
2021/09/11 08:44:16;;;;;;;15.82;9.32;;;26.80;50.50;;;;;;5053034;28;20024;-76
2021/09/11 08:46:42;;;;;;;16.77;9.88;;;26.80;50.40;;;;;;5052909;28;20036;-76
2021/09/11 08:49:10;;;;;;;19.05;9.20;;;26.90;50.20;;;;;;5053238;28;20196;-75
2021/09/11 08:51:36;;;;;;;12.45;8.02;;;26.90;50.10;;;;;;5053191;28;20126;-74
2021/09/11 08:54:02;;;;;;;12.93;8.23;;;26.90;49.60;;;;;;5053099;28;20029;-75
2021/09/11 08:56:28;;;;;;;9.93;7.97;;;27.00;49.80;;;;;;5052766;28;20049;-75
2021/09/11 08:59:11;;;;;;;10.77;7.60;;;27.00;49.60;;;;;;5053579;28;20450;-74
2021/09/11 09:01:38;;;;;;;14.52;8.10;;;26.90;49.20;;;;;;5053973;28;20029;-75
2021/09/11 09:04:04;;;;;;;18.70;8.52;;;26.90;49.40;;;;;;5054398;28;20009;-75
2021/09/11 09:06:31;;;;;;;29.20;9.52;;;26.90;49.40;;;;;;5052880;28;20037;-74
2021/09/11 09:09:03;;;;;;;13.05;7.70;;;27.00;49.50;;;;;;5052401;28;20028;-74
2021/09/11 09:11:31;;;;;;;12.88;7.40;;;27.00;50.20;;;;;;5052089;28;20029;-73
2021/09/11 09:14:05;;;;;;;26.08;9.20;;;27.00;49.50;;;;;;5052490;28;20018;-74
2021/09/11 09:16:33;;;;;;;;;;;27.00;49.90;;;;;;5052356;28;20320;-73
2021/09/11 09:19:02;;;;;;;16.95;7.22;;;27.10;48.80;;;;;;5052721;28;19915;-76
2021/09/11 09:21:32;;;;;;;13.07;7.07;;;27.10;49.20;;;;;;5052730;28;20497;-74
2021/09/11 09:24:04;;;;;;;15.23;7.70;;;27.10;49.50;;;;;;5052516;28;20037;-74
2021/09/11 09:26:31;;;;;;;11.80;7.70;;;27.10;49.10;;;;;;5052794;28;20477;-76
2021/09/11 09:29:10;;;;;;;12.48;8.05;;;27.10;49.10;;;;;;5052360;28;20482;-74
2021/09/11 09:31:37;;;;;;;11.68;7.13;;;27.20;49.10;;;;;;5052683;28;20085;-75
2021/09/11 09:34:04;;;;;;;19.35;8.80;;;27.20;49.10;;;;;;5053750;28;20029;-75
2021/09/11 09:36:34;;;;;;;16.90;7.50;;;27.20;48.90;;;;;;5053235;28;20029;-75
2021/09/11 09:39:02;;;;;;;10.93;7.05;;;27.30;48.90;;;;;;5053225;28;20080;-73
2021/09/11 09:41:44;;;;;;;11.95;7.38;;;27.30;48.80;;;;;;5053137;28;20580;-74
2021/09/11 09:44:12;;;;;;;10.75;7.25;;;27.30;49.00;;;;;;5053317;28;20036;-74
2021/09/11 09:46:39;;;;;;;11.85;7.95;;;27.40;48.80;;;;;;5053073;28;20036;-72
2021/09/11 09:49:06;;;;;;;12.90;7.25;;;27.40;48.90;;;;;;5052686;28;20029;-75
2021/09/11 09:51:33;;;;;;;11.77;7.20;;;27.50;49.00;;;;;;5052555;28;20036;-74
2021/09/11 09:53:59;;;;;;;11.45;7.78;;;27.50;48.90;;;;;;5034900;28;20025;-74
2021/09/11 09:56:27;;;;;;;14.02;7.63;;;27.60;48.80;;;;;;5052506;28;20394;-74
2021/09/11 09:58:54;;;;;;;10.68;6.88;;;27.70;49.00;;;;;;5053209;28;20343;-75
2021/09/11 10:01:21;;;;;;;15.43;7.30;;;27.70;48.90;;;;;;5052795;28;20109;-75
2021/09/11 10:03:47;;;;;;;11.23;7.05;;;27.80;48.60;;;;;;5053036;28;20096;-75
2021/09/11 10:06:18;;;;;;;10.98;7.65;;;27.80;48.40;;;;;;5053605;28;20086;-73
2021/09/11 10:08:51;;;;;;;15.38;7.53;;;27.90;48.20;;;;;;5053594;28;20505;-73
2021/09/11 10:11:17;;;;;;;14.05;7.50;;;28.00;48.10;;;;;;5054397;28;20025;-75
2021/09/11 10:14:01;;;;;;;10.90;7.40;;;28.10;48.10;;;;;;5037506;28;20033;-73
2021/09/11 10:16:32;;;;;;;14.68;7.35;;;28.20;47.80;;;;;;5043524;28;20115;-74
2021/09/11 10:18:58;;;;;;;16.10;7.30;;;28.30;47.90;;;;;;5053355;28;20032;-73
2021/09/11 10:21:35;;;;;;;11.07;6.38;;;28.30;47.70;;;;;;5035973;28;20079;-74
2021/09/11 10:24:01;;;;;;;12.65;7.05;;;28.40;46.60;;;;;;5056637;28;20421;-74
2021/09/11 10:26:51;;;;;;;10.38;7.63;;;28.40;47.50;;;;;;5057232;28;20469;-77
2021/09/11 10:29:33;;;;;;;10.07;7.25;;;28.50;46.20;;;;;;5057271;28;20532;-75
2021/09/11 10:32:00;;;;;;;14.18;7.47;;;28.50;46.90;;;;;;5057207;28;20029;-75
2021/09/11 10:34:53;;;;;;;9.43;7.40;;;28.50;47.10;;;;;;5055741;28;20021;-75
2021/09/11 10:37:37;;;;;;;13.82;7.47;;;28.60;45.50;;;;;;5055809;28;20032;-74
2021/09/11 10:40:20;;;;;;;10.00;7.10;;;28.70;45.50;;;;;;5056095;28;20398;-75
2021/09/11 10:43:11;;;;;;;10.73;7.47;;;28.70;46.40;;;;;;5057040;28;20020;-78
2021/09/11 10:45:46;;;;;;;13.23;7.38;;;28.80;46.10;;;;;;5056392;28;20032;-81
2021/09/11 10:48:33;;;;;;;12.13;8.10;;;28.80;44.40;;;;;;5056398;28;20095;-75
2021/09/11 10:51:19;;;;;;;9.25;6.78;;;28.90;43.80;;;;;;5058144;28;20052;-74
2021/09/11 10:53:57;;;;;;;11.15;7.60;;;28.90;43.20;;;;;;5038123;28;20055;-76
2021/09/11 10:56:31;;;;;;;9.02;6.95;;;29.00;44.90;;;;;;5055844;28;20033;-75
2021/09/11 10:59:21;;;;;;;12.65;8.05;;;29.10;43.00;;;;;;5055689;28;20043;-74
2021/09/11 11:02:01;;;;;;;9.57;7.78;;;29.10;43.00;;;;;;5055553;28;20017;-76
2021/09/11 11:04:28;;;;;;;11.68;7.85;;;29.20;42.90;;;;;;5057028;28;20127;-74
2021/09/11 11:06:55;;;;;;;13.00;7.07;;;29.30;45.00;;;;;;5057024;28;20017;-73
2021/09/11 11:09:21;;;;;;;10.07;7.20;;;29.40;45.00;;;;;;5057132;28;20048;-76
2021/09/11 11:11:49;;;;;;;11.02;7.13;;;29.50;44.60;;;;;;5060173;28;20063;-74
2021/09/11 11:14:16;;;;;;;15.25;7.32;;;29.60;44.20;;;;;;5058890;28;20037;-75
2021/09/11 11:16:46;;;;;;;9.32;6.70;;;29.70;43.40;;;;;;5060168;28;20462;-74
2021/09/11 11:19:28;;;;;;;13.90;7.30;;;29.80;44.00;;;;;;5056541;28;20036;-77
2021/09/11 11:22:08;;;;;;;8.30;6.43;;;29.80;41.10;;;;;;5055531;28;20021;-78
2021/09/11 11:24:37;;;;;;;12.38;7.15;;;29.90;44.10;;;;;;5055201;28;20021;-76
2021/09/11 11:27:11;;;;;;;8.55;6.85;;;30.00;43.60;;;;;;5055144;28;20021;-74
2021/09/11 11:29:38;;;;;;;11.07;6.97;;;30.00;40.90;;;;;;5055138;28;20438;-74
2021/09/11 11:32:06;;;;;;;11.25;6.80;;;30.10;43.00;;;;;;5036860;28;20037;-75
2021/09/11 11:34:32;;;;;;;13.38;7.25;;;30.20;42.10;;;;;;5054508;28;20035;-75
2021/09/11 11:37:02;;;;;;;10.23;7.53;;;30.20;42.30;;;;;;5054806;28;20025;-74
2021/09/11 11:39:30;;;;;;;13.75;6.93;;;30.30;41.80;;;;;;5054634;28;20021;-75
2021/09/11 11:42:11;;;;;;;9.80;7.07;;;30.30;41.10;;;;;;5054408;28;20060;-77
2021/09/11 11:44:39;;;;;;;10.93;7.68;;;30.30;39.80;;;;;;5054519;28;20423;-77
2021/09/11 11:47:37;;;;;;;8.23;7.13;;;30.40;40.50;;;;;;5054400;28;20033;-77
2021/09/11 11:50:15;;;;;;;12.88;6.93;;;30.50;39.30;;;;;;5054313;28;20386;-75
2021/09/11 11:52:44;;;;;;;10.10;6.90;;;30.50;39.10;;;;;;5054797;28;20363;-76
2021/09/11 11:55:13;;;;;;;12.85;7.47;;;30.50;39.30;;;;;;5054277;28;20025;-75
2021/09/11 11:57:42;;;;;;;10.68;7.25;;;30.50;39.40;;;;;;5054327;28;20048;-74
2021/09/11 12:00:12;;;;;;;10.35;6.93;;;30.60;39.30;;;;;;5054321;28;20037;-75
2021/09/11 12:02:42;;;;;;;9.80;7.15;;;30.60;38.90;;;;;;5054351;28;20096;-76
2021/09/11 12:05:27;;;;;;;11.55;8.00;;;30.70;39.20;;;;;;5036094;28;20029;-75
2021/09/11 12:07:59;;;;;;;10.90;6.85;;;30.70;38.70;;;;;;5033182;28;20135;-76
2021/09/11 12:10:27;;;;;;;9.20;7.10;;;30.80;37.60;;;;;;5054256;28;20082;-76
2021/09/11 12:13:03;;;;;;;8.68;6.72;;;30.90;37.00;;;;;;5036487;28;20021;-75
2021/09/11 12:15:33;;;;;;;9.63;7.40;;;31.00;36.60;;;;;;5053768;28;20031;-75
2021/09/11 12:18:17;;;;;;;9.95;7.10;;;30.90;36.30;;;;;;5054144;28;20025;-75
2021/09/11 12:20:53;;;;;;;9.35;6.00;;;30.90;35.90;;;;;;5054152;28;20020;-75
2021/09/11 12:23:29;;;;;;;8.45;5.57;;;31.00;35.50;;;;;;5054302;28;20036;-76
2021/09/11 12:26:00;;;;;;;12.98;6.07;;;31.10;35.60;;;;;;5054224;28;20037;-74
2021/09/11 12:28:42;;;;;;;9.43;6.70;;;31.20;35.50;;;;;;5054856;28;20103;-75
2021/09/11 12:31:25;;;;;;;11.68;7.30;;;31.20;35.70;;;;;;5054342;28;20032;-76
2021/09/11 12:34:08;;;;;;;14.88;7.55;;;31.20;38.30;;;;;;5036311;28;20025;-76
2021/09/11 12:36:39;;;;;;;13.35;7.50;;;31.20;39.70;;;;;;5055414;28;20112;-76
2021/09/11 12:39:17;;;;;;;13.43;7.53;;;31.20;41.70;;;;;;5055207;28;20032;-79